Time;durP1;ratioP1;P1;durP2;ratioP2;P2;SDS_P1;SDS_P2;PMS_P1;PMS_P2;Temp;Humidity;BMP_temperature;BMP_pressure;BME280_temperature;BME280_humidity;BME280_pressure;Samples;Min_cycle;Max_cycle;Signal;HPM_P1;HPM_P2
2022/10/27 00:04:56;;;;;;;17.73;16.00;;;;;;;9.47;100.00;100709.81;10565479;28;20055;-69
2022/10/27 00:09:58;;;;;;;22.83;18.52;;;;;;;9.70;100.00;100714.69;10583754;28;20055;-68
2022/10/27 00:15:00;;;;;;;18.33;16.42;;;;;;;9.62;100.00;100720.97;10584293;28;20047;-68
2022/10/27 00:20:02;;;;;;;20.90;18.55;;;;;;;9.60;100.00;100718.34;10582801;28;20039;-68
2022/10/27 00:25:09;;;;;;;18.92;17.10;;;;;;;9.74;100.00;100729.50;10583092;28;20047;-68
2022/10/27 00:30:10;;;;;;;20.88;17.55;;;;;;;9.97;100.00;100738.72;10582223;28;20050;-68
2022/10/27 00:35:12;;;;;;;18.38;16.70;;;;;;;10.00;100.00;100750.03;10564700;28;20044;-69
2022/10/27 00:40:14;;;;;;;17.67;16.05;;;;;;;10.10;100.00;100746.34;10582907;28;20108;-69
2022/10/27 00:45:15;;;;;;;17.58;15.80;;;;;;;10.18;100.00;100751.47;10582978;28;20122;-69
2022/10/27 00:50:21;;;;;;;17.92;16.17;;;;;;;10.41;100.00;100753.69;10582699;28;20039;-69
2022/10/27 00:55:35;;;;;;;18.42;16.67;;;;;;;10.40;100.00;100764.22;10583001;28;20435;-70
2022/10/27 01:00:40;;;;;;;17.90;16.08;;;;;;;10.30;100.00;100772.28;10582353;28;20096;-69
2022/10/27 01:05:42;;;;;;;20.95;16.85;;;;;;;10.28;100.00;100775.84;10563811;28;20071;-69
2022/10/27 01:10:44;;;;;;;17.33;15.70;;;;;;;10.23;100.00;100773.28;10563588;28;20047;-68
2022/10/27 01:16:07;;;;;;;16.90;15.50;;;;;;;10.07;100.00;100779.69;10588001;28;20046;-68
2022/10/27 01:21:27;;;;;;;16.73;15.13;;;;;;;10.13;100.00;100786.59;10591571;28;20051;-69
2022/10/27 01:26:45;;;;;;;17.88;15.43;;;;;;;10.00;100.00;100784.16;10573006;28;20101;-70
2022/10/27 01:31:53;;;;;;;23.33;16.33;;;;;;;9.99;100.00;100787.69;10590613;28;20409;-69
2022/10/27 01:37:14;;;;;;;18.00;16.48;;;;;;;10.12;100.00;100796.22;10590150;28;20036;-69
2022/10/27 01:42:32;;;;;;;19.83;15.03;;;;;;;9.98;100.00;100790.34;10571481;28;20090;-69
2022/10/27 01:47:35;;;;;;;18.75;16.75;;;;;;;9.81;100.00;100793.25;10590466;28;20074;-70
2022/10/27 01:52:41;;;;;;;18.60;16.48;;;;;;;9.83;100.00;100788.88;10571719;28;20105;-69
2022/10/27 01:58:09;;;;;;;18.02;16.33;;;;;;;10.06;100.00;100785.84;10571180;28;20056;-70
2022/10/27 02:03:18;;;;;;;16.08;14.48;;;;;;;9.81;100.00;100786.25;10590014;28;20397;-69
2022/10/27 02:08:34;;;;;;;16.75;15.05;;;;;;;9.65;100.00;100789.13;10589227;28;20440;-69
2022/10/27 02:13:40;;;;;;;19.58;15.95;;;;;;;9.59;100.00;100798.84;10588437;28;20054;-70
2022/10/27 02:19:07;;;;;;;17.42;15.80;;;;;;;9.52;100.00;100791.97;10569783;28;20039;-68
2022/10/27 02:24:08;;;;;;;21.10;15.90;;;;;;;9.51;100.00;100800.72;10587596;28;20051;-69
2022/10/27 02:29:17;;;;;;;19.48;15.15;;;;;;;9.59;100.00;100806.72;10587694;28;20065;-69
2022/10/27 02:34:20;;;;;;;18.67;16.02;;;;;;;9.40;100.00;100804.41;10587389;28;20061;-68
2022/10/27 02:39:21;;;;;;;16.83;15.18;;;;;;;9.66;100.00;100809.28;10586967;28;20039;-69
2022/10/27 02:44:23;;;;;;;18.10;16.25;;;;;;;9.46;100.00;100813.06;10586603;28;20097;-69
2022/10/27 02:49:24;;;;;;;17.35;15.77;;;;;;;9.47;100.00;100808.66;10567484;28;20043;-69
2022/10/27 02:54:26;;;;;;;18.27;16.33;;;;;;;9.56;100.00;100813.78;10586528;28;20082;-69
2022/10/27 02:59:28;;;;;;;18.70;15.63;;;;;;;9.69;100.00;100810.06;10585715;28;20054;-69
2022/10/27 03:04:29;;;;;;;17.38;15.23;;;;;;;9.40;100.00;100802.66;10567628;28;20051;-69
2022/10/27 03:09:31;;;;;;;21.45;15.25;;;;;;;9.23;100.00;100815.16;10568203;28;20495;-69
2022/10/27 03:14:33;;;;;;;15.77;14.38;;;;;;;9.19;100.00;100823.94;10584989;28;20047;-69
2022/10/27 03:19:34;;;;;;;15.82;14.30;;;;;;;9.21;100.00;100815.19;10585597;28;20397;-69
2022/10/27 03:24:36;;;;;;;16.08;14.50;;;;;;;9.31;100.00;100823.78;10584925;28;20118;-69
2022/10/27 03:29:37;;;;;;;16.48;14.82;;;;;;;9.13;100.00;100826.66;10566640;28;20040;-69
2022/10/27 03:34:39;;;;;;;16.55;14.05;;;;;;;9.25;100.00;100829.09;10584755;28;20047;-69
2022/10/27 03:39:41;;;;;;;19.08;14.90;;;;;;;9.37;100.00;100828.06;10583918;28;20043;-68
2022/10/27 03:44:42;;;;;;;14.77;13.38;;;;;;;9.13;100.00;100839.78;10584262;28;20568;-68
2022/10/27 03:49:44;;;;;;;16.63;14.98;;;;;;;9.20;100.00;100841.41;10565377;28;20533;-68
2022/10/27 03:54:46;;;;;;;17.67;13.98;;;;;;;9.03;100.00;100852.09;10583822;28;20090;-69
2022/10/27 03:59:47;;;;;;;17.13;15.52;;;;;;;9.17;100.00;100862.47;10583421;28;20126;-69
2022/10/27 04:04:49;;;;;;;16.33;14.65;;;;;;;8.98;100.00;100867.91;10584176;28;20075;-69
2022/10/27 04:09:51;;;;;;;18.17;15.43;;;;;;;9.29;100.00;100868.38;10583806;28;20404;-69
2022/10/27 04:14:52;;;;;;;17.00;15.30;;;;;;;9.01;100.00;100867.88;10584318;28;20047;-69
2022/10/27 04:19:54;;;;;;;15.52;13.93;;;;;;;9.13;100.00;100869.50;10583589;28;20362;-69
2022/10/27 04:24:55;;;;;;;17.33;15.23;;;;;;;9.29;100.00;100864.91;10583012;28;20044;-69
2022/10/27 04:29:57;;;;;;;15.50;14.23;;;;;;;9.17;100.00;100868.56;10582660;28;20451;-69
2022/10/27 04:34:59;;;;;;;14.55;13.07;;;;;;;8.88;100.00;100875.91;10583238;28;20415;-69
2022/10/27 04:40:00;;;;;;;17.23;15.55;;;;;;;8.77;100.00;100870.78;10583509;28;20484;-69
2022/10/27 04:45:02;;;;;;;18.55;13.98;;;;;;;8.68;100.00;100877.00;10582185;28;20097;-69
2022/10/27 04:50:04;;;;;;;14.90;13.63;;;;;;;8.62;100.00;100884.91;10582006;28;20364;-70
2022/10/27 04:55:07;;;;;;;15.52;14.13;;;;;;;8.61;100.00;100890.19;10582136;28;20408;-69
2022/10/27 05:05:28;;;;;;;16.60;15.00;;;;;;;8.78;100.00;100896.97;10456347;28;20170;-71
2022/10/27 05:10:31;;;;;;;16.15;14.57;;;;;;;8.79;100.00;100900.47;10457420;28;20080;-71
2022/10/27 05:15:33;;;;;;;15.32;13.82;;;;;;;8.66;100.00;100911.97;10438402;28;20573;-71
2022/10/27 05:20:35;;;;;;;18.65;16.55;;;;;;;8.73;100.00;100909.28;10438760;28;20049;-71
2022/10/27 05:25:36;;;;;;;17.67;15.68;;;;;;;9.06;100.00;100912.41;10455165;28;20406;-70
2022/10/27 05:30:38;;;;;;;17.13;15.43;;;;;;;8.81;100.00;100910.06;10437742;28;20049;-71
2022/10/27 05:35:40;;;;;;;15.30;13.82;;;;;;;8.58;100.00;100917.28;10458707;28;20057;-71
2022/10/27 05:40:42;;;;;;;22.77;16.67;;;;;;;8.95;100.00;100914.28;10456193;28;20056;-71
2022/10/27 05:45:43;;;;;;;16.25;14.80;;;;;;;8.62;100.00;100928.59;10438358;28;20045;-70
2022/10/27 05:50:45;;;;;;;17.48;15.88;;;;;;;8.45;100.00;100921.75;10437860;28;20048;-70
2022/10/27 05:55:47;;;;;;;17.30;15.65;;;;;;;8.44;100.00;100932.25;10457676;28;20398;-69
2022/10/27 06:00:48;;;;;;;17.73;15.95;;;;;;;8.47;100.00;100933.09;10442154;28;20434;-70
2022/10/27 06:05:51;;;;;;;19.60;17.08;;;;;;;8.72;100.00;100930.25;10462460;28;20486;-70
2022/10/27 06:10:52;;;;;;;21.63;17.60;;;;;;;8.82;100.00;100934.53;10462726;28;20041;-70
2022/10/27 06:15:54;;;;;;;20.13;17.25;;;;;;;8.79;100.00;100937.16;10463757;28;20044;-70
2022/10/27 06:20:55;;;;;;;18.73;16.92;;;;;;;8.90;100.00;100943.19;10462348;28;20096;-70
2022/10/27 06:25:57;;;;;;;19.33;17.17;;;;;;;8.93;100.00;100942.28;10461373;28;20041;-70
2022/10/27 06:30:58;;;;;;;18.15;16.42;;;;;;;8.65;100.00;100947.78;10461957;28;20041;-70
2022/10/27 06:36:00;;;;;;;20.42;18.38;;;;;;;8.94;100.00;100959.72;10443966;28;20045;-71
2022/10/27 06:41:02;;;;;;;17.60;16.02;;;;;;;8.70;100.00;100958.22;10462941;28;20049;-70
2022/10/27 06:46:03;;;;;;;20.85;18.08;;;;;;;8.75;100.00;100966.91;10443329;28;20441;-70
2022/10/27 06:51:05;;;;;;;18.75;16.95;;;;;;;8.89;100.00;100978.13;10461749;28;20479;-70
2022/10/27 06:56:06;;;;;;;24.63;19.08;;;;;;;8.99;100.00;100974.56;10460748;28;20045;-70
2022/10/27 07:01:08;;;;;;;19.85;17.75;;;;;;;8.98;100.00;100985.91;10461718;28;20461;-70
2022/10/27 07:06:10;;;;;;;23.55;21.00;;;;;;;9.24;100.00;100992.63;10461540;28;20048;-70
2022/10/27 07:11:11;;;;;;;27.60;20.33;;;;;;;9.38;100.00;100992.47;10441740;28;20072;-70
2022/10/27 07:16:14;;;;;;;27.45;21.00;;;;;;;9.54;100.00;101005.41;10460295;28;20045;-70
2022/10/27 07:21:15;;;;;;;33.85;23.20;;;;;;;9.83;100.00;101004.19;10462431;28;20483;-71
2022/10/27 07:26:17;;;;;;;34.40;23.77;;;;;;;9.86;100.00;101010.25;10459841;28;20041;-70
2022/10/27 07:31:18;;;;;;;38.97;23.67;;;;;;;10.11;100.00;101008.16;10441689;28;20087;-71
2022/10/27 07:36:20;;;;;;;34.40;22.40;;;;;;;10.19;100.00;101020.34;10460353;28;20041;-71
2022/10/27 07:41:22;;;;;;;27.45;22.30;;;;;;;10.40;100.00;101014.75;10443503;28;20098;-71
2022/10/27 07:46:23;;;;;;;31.58;22.27;;;;;;;10.51;100.00;101019.88;10460149;28;20041;-71
2022/10/27 07:51:25;;;;;;;27.23;20.98;;;;;;;10.57;100.00;101027.66;10458948;28;20065;-71
2022/10/27 07:56:27;;;;;;;45.60;23.77;;;;;;;10.74;100.00;101024.75;10458927;28;20455;-70
2022/10/27 08:01:29;;;;;;;43.45;24.70;;;;;;;10.89;100.00;101027.13;10459230;28;20414;-70
2022/10/27 08:06:31;;;;;;;33.65;22.55;;;;;;;11.18;100.00;101026.59;10443020;28;20048;-70
2022/10/27 08:11:32;;;;;;;21.15;18.95;;;;;;;11.63;100.00;101035.38;10457907;28;20048;-70
2022/10/27 08:16:34;;;;;;;30.65;19.55;;;;;;;11.55;100.00;101036.41;10457923;28;20067;-70
2022/10/27 08:21:35;;;;;;;25.27;18.33;;;;;;;11.72;100.00;101034.31;10440297;28;20049;-70
2022/10/27 08:26:37;;;;;;;21.15;17.35;;;;;;;11.99;100.00;101022.34;10458731;28;20041;-70
2022/10/27 08:31:39;;;;;;;20.27;17.75;;;;;;;12.08;100.00;101024.78;10457405;28;20033;-70
2022/10/27 08:36:40;;;;;;;18.88;17.02;;;;;;;12.23;100.00;101028.88;10457162;28;20045;-70
2022/10/27 08:41:51;;;;;;;17.58;16.00;;;;;;;12.20;100.00;101033.34;10439486;28;20045;-70
2022/10/27 08:46:56;;;;;;;16.90;15.27;;;;;;;12.52;100.00;101033.44;10456487;28;20037;-70
2022/10/27 08:52:25;;;;;;;17.23;15.15;;;;;;;12.46;100.00;101040.66;10458005;28;20452;-70
2022/10/27 08:57:30;;;;;;;13.93;12.52;;;;;;;13.04;100.00;101026.00;10444784;28;20053;-70
2022/10/27 09:03:14;;;;;;;14.93;12.10;;;;;;;13.18;100.00;101020.38;10456571;28;20075;-70
2022/10/27 09:08:24;;;;;;;13.18;10.82;;;;;;;13.13;100.00;101013.44;10438249;28;20041;-70
2022/10/27 09:13:47;;;;;;;13.68;10.40;;;;;;;13.10;100.00;101017.94;10456672;28;20095;-70
2022/10/27 09:18:54;;;;;;;13.15;11.95;;;;;;;13.12;100.00;101021.41;10414981;28;20521;-70
2022/10/27 09:24:15;;;;;;;;;;;;;;;13.25;100.00;101019.34;10455024;28;20495;-71
2022/10/27 09:29:36;;;;;;;16.25;10.50;;;;;;;13.49;100.00;101028.34;10439920;28;19956;-70
2022/10/27 09:34:45;;;;;;;10.52;9.63;;;;;;;13.90;100.00;101019.25;10459261;28;20045;-69
2022/10/27 09:39:52;;;;;;;9.57;8.65;;;;;;;14.03;100.00;101025.00;10445222;28;20033;-70
2022/10/27 09:45:01;;;;;;;9.43;8.60;;;;;;;14.55;97.45;101013.69;10463927;28;20462;-70
2022/10/27 09:50:07;;;;;;;12.23;10.85;;;;;;;14.62;96.45;101009.94;10463254;28;20037;-70
2022/10/27 09:55:10;;;;;;;8.95;7.97;;;;;;;14.78;97.32;101004.13;10465201;28;20186;-70
2022/10/27 10:00:32;;;;;;;8.68;7.82;;;;;;;14.94;96.23;101001.84;10464175;28;20041;-69
2022/10/27 10:05:35;;;;;;;9.07;8.07;;;;;;;15.13;94.22;101001.13;10445955;28;20071;-69
2022/10/27 10:10:39;;;;;;;8.60;7.75;;;;;;;15.43;93.50;101005.41;10444838;28;20076;-69
2022/10/27 10:15:47;;;;;;;7.85;7.13;;;;;;;16.15;90.11;101001.75;10446038;28;20507;-69
2022/10/27 10:20:57;;;;;;;10.30;7.40;;;;;;;17.27;81.06;101002.47;10445844;28;20041;-70
2022/10/27 10:26:01;;;;;;;12.27;6.88;;;;;;;18.12;75.49;100997.69;10462794;28;20068;-70
2022/10/27 10:31:06;;;;;;;6.07;5.40;;;;;;;19.11;69.20;100988.34;10462487;28;20037;-69
2022/10/27 10:36:28;;;;;;;6.65;4.50;;;;;;;19.46;69.32;100982.94;10463315;28;20041;-70
2022/10/27 10:41:30;;;;;;;5.28;4.38;;;;;;;20.16;65.15;100987.97;10465367;28;20418;-69
2022/10/27 10:46:31;;;;;;;4.85;4.25;;;;;;;20.46;63.06;100994.31;10462114;28;20045;-69
2022/10/27 10:51:35;;;;;;;5.85;3.83;;;;;;;20.69;63.16;100998.34;10443571;28;20045;-69
2022/10/27 10:56:37;;;;;;;5.10;3.40;;;;;;;21.26;59.06;100985.13;10461068;28;20063;-69
2022/10/27 11:01:51;;;;;;;4.50;3.05;;;;;;;21.49;57.49;100979.25;10495652;22;20496;-75
2022/10/27 11:06:56;;;;;;;9.20;3.22;;;;;;;21.90;60.23;100975.75;10545564;28;20036;-73
2022/10/27 11:11:59;;;;;;;2.83;2.30;;;;;;;22.47;55.37;100964.06;10545423;28;20064;-74
2022/10/27 11:17:03;;;;;;;3.70;2.50;;;;;;;22.72;53.00;100968.66;10528647;28;20082;-74
2022/10/27 11:22:11;;;;;;;2.88;2.00;;;;;;;22.84;54.58;100959.75;10545278;28;20047;-74
2022/10/27 11:28:03;;;;;;;4.20;2.15;;;;;;;23.19;52.32;100960.03;10544393;28;20039;-75
2022/10/27 11:33:28;;;;;;;3.20;1.90;;;;;;;23.06;52.55;100951.13;10459035;28;20390;-73
2022/10/27 11:38:39;;;;;;;1.98;1.77;;;;;;;23.29;50.68;100950.38;10543801;28;20044;-74
2022/10/27 11:44:04;;;;;;;3.83;2.33;;;;;;;22.93;54.07;100945.75;10544322;28;20057;-74
2022/10/27 11:49:19;;;;;;;4.78;2.30;;;;;;;22.52;52.71;100944.03;10542911;28;20118;-73
2022/10/27 11:54:21;;;;;;;3.78;2.13;;;;;;;22.02;54.04;100929.47;10543597;28;20040;-74
2022/10/27 11:59:39;;;;;;;4.00;2.25;;;;;;;21.23;58.40;100927.34;10542174;28;20044;-75
2022/10/27 12:04:56;;;;;;;2.95;1.77;;;;;;;20.96;58.10;100924.56;10543687;28;20044;-75
2022/10/27 12:10:18;;;;;;;4.28;2.13;;;;;;;20.74;58.08;100914.31;10543783;28;20043;-75
2022/10/27 12:15:24;;;;;;;2.38;1.75;;;;;;;20.44;60.36;100919.63;10543341;28;20048;-74
2022/10/27 12:20:52;;;;;;;;;;;;;;;20.37;61.01;100907.59;10542889;28;20085;-75
2022/10/27 12:25:58;;;;;;;2.65;1.33;;;;;;;20.15;61.77;100903.50;10523212;28;19927;-74
2022/10/27 12:31:04;;;;;;;4.72;1.50;;;;;;;20.17;61.47;100906.06;10542970;28;20051;-75
2022/10/27 12:36:21;;;;;;;3.77;1.50;;;;;;;20.17;60.95;100898.91;10543885;28;20040;-75
2022/10/27 12:41:30;;;;;;;3.28;1.85;;;;;;;20.02;62.19;100885.63;10543096;28;20278;-75
2022/10/27 12:46:46;;;;;;;3.17;1.63;;;;;;;19.88;62.89;100881.94;10543204;28;20040;-75
2022/10/27 12:52:11;;;;;;;2.20;1.40;;;;;;;20.00;61.50;100885.69;10542629;28;20055;-75
2022/10/27 12:57:32;;;;;;;3.83;1.63;;;;;;;20.03;61.33;100885.53;10542519;28;20086;-75
2022/10/27 13:03:04;;;;;;;2.53;1.75;;;;;;;19.97;61.49;100882.38;10543264;28;20440;-75
2022/10/27 13:08:28;;;;;;;3.25;1.60;;;;;;;20.04;61.17;100879.22;10525605;28;20032;-75
2022/10/27 13:13:44;;;;;;;2.70;1.58;;;;;;;19.90;61.66;100872.00;10550932;28;20097;-75
2022/10/27 13:19:00;;;;;;;3.60;1.60;;;;;;;19.75;62.68;100872.06;10533822;28;20043;-75
2022/10/27 13:24:26;;;;;;;3.33;1.90;;;;;;;19.45;64.67;100862.13;10551076;28;20040;-75
2022/10/27 13:29:55;;;;;;;3.30;1.50;;;;;;;19.65;63.21;100855.69;10531993;28;20044;-76
2022/10/27 13:35:00;;;;;;;3.95;1.60;;;;;;;19.66;63.00;100854.75;10550439;28;20074;-75
2022/10/27 13:40:02;;;;;;;2.35;1.60;;;;;;;19.43;63.92;100853.31;10551213;28;20044;-76
2022/10/27 13:45:26;;;;;;;1.50;1.10;;;;;;;19.50;62.40;100852.03;10551010;28;20036;-76
2022/10/27 13:50:35;;;;;;;2.85;1.27;;;;;;;19.60;61.92;100844.38;10531902;28;20040;-76
2022/10/27 13:55:38;;;;;;;2.30;1.30;;;;;;;19.38;63.22;100852.72;10550427;28;20463;-75
2022/10/27 14:00:49;;;;;;;2.38;1.00;;;;;;;19.58;60.28;100838.28;10550094;28;20044;-76
2022/10/27 14:05:51;;;;;;;1.48;1.13;;;;;;;19.56;60.52;100830.34;10535588;28;20394;-76
2022/10/27 14:10:58;;;;;;;2.05;1.30;;;;;;;19.25;61.10;100833.00;10556082;28;20105;-76
2022/10/27 14:16:02;;;;;;;1.75;1.00;;;;;;;19.19;61.24;100828.03;10536514;28;20048;-75
2022/10/27 14:21:17;;;;;;;2.65;1.10;;;;;;;19.39;60.31;100833.13;10553628;28;20043;-75
2022/10/27 14:26:25;;;;;;;3.65;1.38;;;;;;;19.32;60.66;100834.41;10553593;28;20492;-76
2022/10/27 14:31:29;;;;;;;3.80;1.48;;;;;;;19.28;60.65;100839.03;10554261;28;20110;-76
2022/10/27 14:36:32;;;;;;;2.53;1.20;;;;;;;19.03;61.62;100833.31;10552334;28;20048;-75
2022/10/27 14:41:36;;;;;;;2.63;1.10;;;;;;;19.00;61.91;100825.53;10553464;28;20090;-76
2022/10/27 14:46:42;;;;;;;2.80;1.25;;;;;;;18.99;61.70;100832.66;10536740;28;20143;-75
2022/10/27 14:51:47;;;;;;;4.68;1.80;;;;;;;18.68;62.57;100825.38;10554071;28;20054;-75
2022/10/27 14:56:49;;;;;;;5.40;4.05;;;;;;;18.56;64.14;100815.41;10552222;28;20432;-75
2022/10/27 15:01:51;;;;;;;1.77;1.63;;;;;;;18.19;66.20;100821.75;10534147;28;20466;-74
2022/10/27 15:07:01;;;;;;;7.45;1.35;;;;;;;18.04;66.75;100813.59;10549442;28;20040;-75
2022/10/27 15:12:11;;;;;;;2.50;1.40;;;;;;;17.87;68.36;100806.47;10548797;28;20052;-76
2022/10/27 15:17:15;;;;;;;3.05;1.52;;;;;;;17.80;69.50;100804.22;10547469;28;20094;-75
2022/10/27 15:22:18;;;;;;;2.80;1.80;;;;;;;17.59;70.85;100798.97;10546785;28;20048;-75
2022/10/27 15:27:20;;;;;;;3.33;1.45;;;;;;;17.26;71.63;100800.56;10528528;28;20086;-74
2022/10/27 15:32:31;;;;;;;3.03;1.40;;;;;;;17.12;72.25;100798.56;10546130;28;20390;-75
2022/10/27 15:37:33;;;;;;;3.80;1.77;;;;;;;16.92;73.58;100807.47;10546994;28;20123;-75
2022/10/27 15:42:35;;;;;;;3.25;1.92;;;;;;;16.70;74.96;100804.88;10529616;28;20516;-75
2022/10/27 15:47:40;;;;;;;7.80;2.50;;;;;;;16.45;76.26;100815.72;10549399;28;20371;-76
2022/10/27 15:52:42;;;;;;;6.00;2.60;;;;;;;16.15;77.99;100808.13;10529337;28;20417;-76
2022/10/27 15:57:45;;;;;;;3.38;1.92;;;;;;;15.82;79.41;100822.81;10550604;28;20078;-75
2022/10/27 16:02:55;;;;;;;2.83;2.30;;;;;;;15.46;81.24;100827.78;10550402;28;20052;-75
2022/10/27 16:08:11;;;;;;;3.33;2.92;;;;;;;15.30;81.49;100820.41;10546790;28;20086;-75
2022/10/27 16:13:19;;;;;;;5.40;2.80;;;;;;;15.25;85.18;100817.09;10544813;28;20032;-76
2022/10/27 16:18:23;;;;;;;3.72;2.15;;;;;;;14.99;86.64;100817.22;10545302;28;20072;-76
2022/10/27 16:23:25;;;;;;;3.58;2.70;;;;;;;14.78;87.64;100816.22;10529999;28;20040;-76
2022/10/27 16:28:39;;;;;;;4.22;3.67;;;;;;;14.46;88.69;100806.75;10509559;28;20044;-75
2022/10/27 16:33:42;;;;;;;3.97;3.50;;;;;;;14.46;88.81;100809.41;10527084;28;20497;-75
2022/10/27 16:38:44;;;;;;;5.80;3.78;;;;;;;14.33;89.95;100809.84;10544400;28;20052;-76
2022/10/27 16:43:46;;;;;;;3.92;3.15;;;;;;;14.18;91.31;100817.44;10543480;28;20492;-76
2022/10/27 16:48:47;;;;;;;4.60;3.17;;;;;;;14.18;92.25;100822.75;10545269;28;20044;-76
2022/10/27 16:53:49;;;;;;;5.93;3.72;;;;;;;14.06;91.20;100824.00;10544433;28;20046;-75
2022/10/27 16:58:51;;;;;;;5.40;4.10;;;;;;;13.95;91.87;100834.09;10543862;28;20544;-75
2022/10/27 17:03:53;;;;;;;4.25;3.28;;;;;;;14.10;90.72;100828.28;10544023;28;20516;-72
2022/10/27 17:08:55;;;;;;;3.70;2.60;;;;;;;13.97;90.51;100827.81;10509197;28;20067;-72
2022/10/27 17:13:57;;;;;;;4.50;3.10;;;;;;;14.17;87.73;100826.31;10544686;28;20448;-72
2022/10/27 17:19:01;;;;;;;4.18;3.03;;;;;;;14.25;86.59;100833.03;10544370;28;20047;-72
2022/10/27 17:24:03;;;;;;;3.25;2.33;;;;;;;14.28;86.00;100829.44;10545486;28;20047;-72
2022/10/27 17:29:05;;;;;;;6.78;3.33;;;;;;;14.08;87.00;100825.69;10527247;28;20047;-71
2022/10/27 17:34:06;;;;;;;3.25;2.92;;;;;;;13.87;88.30;100827.25;10527615;28;20048;-72
2022/10/27 17:39:08;;;;;;;5.78;2.83;;;;;;;13.96;88.41;100830.53;10544681;28;20040;-72
2022/10/27 17:44:10;;;;;;;5.43;3.05;;;;;;;13.88;89.11;100833.41;10525104;28;20527;-72
2022/10/27 17:49:12;;;;;;;3.60;3.25;;;;;;;13.74;89.50;100833.00;10542702;28;20096;-72
2022/10/27 17:54:16;;;;;;;4.18;3.25;;;;;;;13.83;91.04;100838.00;10529638;28;20040;-72
2022/10/27 17:59:19;;;;;;;3.72;3.25;;;;;;;13.91;90.79;100828.03;10533458;28;20094;-72
2022/10/27 18:04:20;;;;;;;4.15;3.35;;;;;;;13.73;92.14;100834.78;10549758;28;20044;-71
2022/10/27 18:09:22;;;;;;;4.75;4.00;;;;;;;13.62;93.26;100827.19;10549577;28;20036;-72
2022/10/27 18:14:24;;;;;;;8.32;5.72;;;;;;;13.60;94.14;100825.53;10480599;28;20048;-72
2022/10/27 18:19:26;;;;;;;5.80;4.85;;;;;;;13.71;93.91;100830.44;10528401;28;20516;-73
2022/10/27 18:24:27;;;;;;;5.35;4.85;;;;;;;13.65;94.54;100828.00;10532914;28;20048;-72
2022/10/27 18:29:31;;;;;;;9.45;5.13;;;;;;;13.48;96.53;100826.75;10428103;28;20064;-72
2022/10/27 18:34:32;;;;;;;5.80;5.20;;;;;;;13.29;98.38;100818.53;10541508;28;20094;-73
2022/10/27 18:39:34;;;;;;;7.90;5.22;;;;;;;13.18;98.95;100822.38;10536235;28;20123;-72
2022/10/27 18:44:36;;;;;;;6.70;5.20;;;;;;;13.04;100.00;100820.16;10547356;28;20044;-72
2022/10/27 18:49:37;;;;;;;6.97;5.93;;;;;;;13.10;100.00;100814.66;10545934;28;20408;-72
2022/10/27 18:54:50;;;;;;;6.70;6.03;;;;;;;12.80;100.00;100804.13;10530428;28;20050;-72
2022/10/27 18:59:52;;;;;;;7.28;6.57;;;;;;;12.89;100.00;100816.19;10527665;28;20039;-71
2022/10/27 19:04:54;;;;;;;8.50;7.05;;;;;;;12.73;100.00;100813.09;10545721;28;20105;-72
2022/10/27 19:09:56;;;;;;;6.93;6.32;;;;;;;12.44;100.00;100815.66;10527952;28;20048;-73
2022/10/27 19:14:57;;;;;;;7.88;7.03;;;;;;;12.37;100.00;100807.09;10527745;28;20090;-73
2022/10/27 19:19:59;;;;;;;9.52;7.15;;;;;;;12.41;100.00;100813.16;10545467;28;20436;-72
2022/10/27 19:25:02;;;;;;;7.85;7.13;;;;;;;12.19;100.00;100810.22;10528006;28;20044;-71
2022/10/27 19:30:04;;;;;;;8.30;7.60;;;;;;;12.04;100.00;100793.00;10544747;28;20102;-72
2022/10/27 19:35:06;;;;;;;9.30;8.50;;;;;;;11.97;100.00;100796.72;10544795;28;20047;-72
2022/10/27 19:40:08;;;;;;;10.07;8.70;;;;;;;11.91;100.00;100795.09;10544149;28;20120;-71
2022/10/27 19:45:10;;;;;;;10.77;9.77;;;;;;;11.94;100.00;100787.09;10543928;28;20039;-72
2022/10/27 19:50:12;;;;;;;10.95;10.00;;;;;;;11.91;100.00;100795.09;10509622;28;20486;-72
2022/10/27 19:55:14;;;;;;;11.38;10.27;;;;;;;11.89;100.00;100799.53;10544351;28;20036;-72
2022/10/27 20:00:16;;;;;;;13.30;12.32;;;;;;;11.93;100.00;100793.28;10525485;28;20050;-72
2022/10/27 20:05:22;;;;;;;12.30;11.02;;;;;;;12.03;100.00;100796.53;10543448;28;20074;-71
2022/10/27 20:10:24;;;;;;;10.57;8.07;;;;;;;11.96;100.00;100795.84;10543797;28;20055;-72
2022/10/27 20:15:26;;;;;;;11.50;10.48;;;;;;;11.90;100.00;100798.63;10543561;28;20452;-74
2022/10/27 20:20:27;;;;;;;12.23;10.85;;;;;;;11.94;100.00;100796.78;10543659;28;20040;-73
2022/10/27 20:25:29;;;;;;;12.55;11.32;;;;;;;11.99;100.00;100797.53;10544105;28;20040;-72
2022/10/27 20:30:31;;;;;;;12.32;11.23;;;;;;;12.05;100.00;100806.16;10543691;28;20044;-72
2022/10/27 20:35:32;;;;;;;11.98;10.98;;;;;;;12.15;100.00;100801.50;10543052;28;20165;-72
2022/10/27 20:40:35;;;;;;;11.48;10.60;;;;;;;11.95;100.00;100798.50;10524168;28;20055;-72
2022/10/27 20:45:37;;;;;;;11.80;10.65;;;;;;;11.83;100.00;100799.69;10523876;28;20066;-73
2022/10/27 20:50:39;;;;;;;12.13;10.43;;;;;;;11.82;100.00;100798.84;10524574;28;20051;-74
2022/10/27 20:55:40;;;;;;;14.30;11.52;;;;;;;11.99;100.00;100800.16;10523693;28;20079;-74
2022/10/27 21:00:42;;;;;;;11.30;10.30;;;;;;;11.88;100.00;100792.53;10542101;28;20090;-74
2022/10/27 21:05:44;;;;;;;10.27;9.27;;;;;;;11.77;100.00;100794.53;10524560;28;20113;-74
2022/10/27 21:10:46;;;;;;;12.95;11.60;;;;;;;11.96;100.00;100790.59;10522805;28;20046;-73
2022/10/27 21:15:55;;;;;;;13.05;11.80;;;;;;;11.89;100.00;100783.72;10540604;28;20044;-73
2022/10/27 21:20:57;;;;;;;14.68;13.48;;;;;;;11.90;100.00;100771.41;10540807;28;20520;-74
2022/10/27 21:26:01;;;;;;;15.20;13.68;;;;;;;12.09;100.00;100773.56;10541139;28;20075;-74
2022/10/27 21:31:09;;;;;;;20.73;15.65;;;;;;;12.20;100.00;100775.88;10544198;28;20401;-74
2022/10/27 21:36:11;;;;;;;16.30;14.82;;;;;;;12.34;100.00;100767.59;10549927;28;20488;-73
2022/10/27 21:41:15;;;;;;;16.42;15.02;;;;;;;12.25;100.00;100771.34;10550173;28;20075;-72
2022/10/27 21:46:20;;;;;;;20.02;17.90;;;;;;;12.54;100.00;100767.94;10530610;28;20047;-74
2022/10/27 21:51:22;;;;;;;18.40;16.50;;;;;;;12.57;100.00;100767.84;10549130;28;20085;-73
2022/10/27 21:56:24;;;;;;;19.25;17.48;;;;;;;12.62;100.00;100760.66;10530332;28;20056;-74
2022/10/27 22:01:27;;;;;;;17.25;15.57;;;;;;;12.60;100.00;100766.88;10548192;28;20040;-75
2022/10/27 22:06:31;;;;;;;18.90;17.15;;;;;;;12.71;100.00;100764.81;10513351;28;20506;-73
2022/10/27 22:11:35;;;;;;;20.65;16.27;;;;;;;12.72;100.00;100755.13;10548747;28;20484;-74
2022/10/27 22:16:37;;;;;;;18.17;16.55;;;;;;;12.54;100.00;100754.75;10549905;28;20052;-74
2022/10/27 22:21:39;;;;;;;18.92;16.77;;;;;;;12.57;100.00;100740.59;10531582;28;20040;-73
2022/10/27 22:26:41;;;;;;;24.70;17.85;;;;;;;12.75;100.00;100749.75;10546984;28;20047;-74
2022/10/27 22:31:43;;;;;;;26.23;17.23;;;;;;;12.69;100.00;100731.47;10545661;28;20063;-74
2022/10/27 22:36:45;;;;;;;18.02;16.52;;;;;;;12.66;100.00;100734.19;10527442;28;20068;-74
2022/10/27 22:41:47;;;;;;;18.38;16.67;;;;;;;12.59;100.00;100729.09;10545278;28;20102;-73
2022/10/27 22:46:48;;;;;;;18.75;16.77;;;;;;;12.53;100.00;100731.94;10526969;28;20036;-73
2022/10/27 22:51:50;;;;;;;17.33;15.95;;;;;;;12.49;100.00;100727.66;10544695;28;20074;-73
2022/10/27 22:56:51;;;;;;;19.73;18.02;;;;;;;12.42;100.00;100717.31;10544243;28;20055;-73
2022/10/27 23:01:53;;;;;;;20.00;18.08;;;;;;;12.34;100.00;100718.38;10544144;28;20123;-73
2022/10/27 23:06:55;;;;;;;18.52;17.17;;;;;;;12.30;100.00;100710.59;10543916;28;20516;-74
2022/10/27 23:11:56;;;;;;;18.95;17.05;;;;;;;12.28;100.00;100712.44;10543572;28;20402;-73